ESUT

Hemavan Airport

Sweden
METAR ESUT 222020Z AUTO 32003KT 290V020 9999 -SN SCT012/// BKN035/// BKN047/// M00/M01 Q0994
Observed Flight Rules
Oct-22 @ 20:20 UTC (29 minutes ago) Visual Flight Rules
Wind Visibility Clouds Conditions
320° at 3 knots 10,000+ meters
  • Scattered at 1,200' AGL
  • Broken at 3,500' AGL
  • Broken at 4,700' AGL
  • Light Snow
Temperatures Readings
Current 0°C / 32°F
Dewpoint -1°C / 30°F
Humidity 93%
Altimeter 29.35" Hg
Pressure 994 hPa
Elevation 463
METAR ESUT 222020Z AUTO 32003KT 290V020 9999 -SN SCT012/// BKN035/// BKN047/// M00/M01 Q0994
Observed Flight Rules
Oct-22 @ 20:20 UTC
(29 minutes ago)
VFR
Wind Visibility
320° at 3 knots 10,000+ meters
Clouds
  • Scattered at 1,200' AGL
  • Broken at 3,500' AGL
  • Broken at 4,700' AGL
Conditions
  • Light Snow
Temperature Dewpoint
0°C / 32°F -1°C / 30°F
Humidity Altimeter Pressure
93% 29.35" Hg 994 hPa